Waynesville, North Carolina
Current Conditions -  °F | °C
As of 8:54 AM on Saturday 22 Nov 2014 (Local Time) from KAVL Reporting Station
Clear Clear  
Wind Chill: 28°   Ceiling: Unl
Heat Index: 28°   Visibility: 10mi
Dew Point: 21°   Wind: 3mph
Humidity: 75%   Direction: 160°SSE
Pressure: 30.5"   Gusts: NA
Location:  35.48°N, 83.01°W
Report Text: KAVL 221354Z 16003KT 10SM CLR M02/M06 A3050 RMK AO2 SLP344 T10221061
Loading
Personal Weather Stations






























Interactive Weather Map New forecast layout! Learn more

10-Day Weather Forecast

Advertisements
Track Severe Weather on mobile